Time;durP1;ratioP1;P1;durP2;ratioP2;P2;SDS_P1;SDS_P2;PMS_P1;PMS_P2;Temp;Humidity;BMP_temperature;BMP_pressure;BME280_temperature;BME280_humidity;BME280_pressure;Samples;Min_cycle;Max_cycle;Signal;HPM_P1;HPM_P2
2023/08/30 00:01:57;;;;;;;11.33;10.43;;;;;;;14.59;100.00;97491.56;5094916;28;20200;-75
2023/08/30 00:04:23;;;;;;;12.10;10.97;;;;;;;14.57;100.00;97494.50;5094895;28;20208;-75
2023/08/30 00:06:50;;;;;;;11.63;10.53;;;;;;;14.55;100.00;97495.81;5094480;28;20207;-75
2023/08/30 00:09:16;;;;;;;11.53;10.63;;;;;;;14.50;100.00;97499.28;5094334;28;20228;-75
2023/08/30 00:11:42;;;;;;;11.37;10.37;;;;;;;14.39;100.00;97488.78;5094843;28;20200;-75
2023/08/30 00:14:09;;;;;;;10.83;10.03;;;;;;;14.42;100.00;97488.28;5094783;28;20206;-75
2023/08/30 00:16:38;;;;;;;10.90;10.00;;;;;;;14.36;100.00;97495.44;5096893;28;20290;-75
2023/08/30 00:19:04;;;;;;;11.47;10.47;;;;;;;14.39;100.00;97491.44;5098699;28;20224;-75
2023/08/30 00:21:30;;;;;;;13.07;10.60;;;;;;;14.27;100.00;97486.28;5098600;28;20203;-75
2023/08/30 00:23:57;;;;;;;11.47;10.50;;;;;;;14.21;100.00;97484.63;5098331;28;20291;-75
2023/08/30 00:26:23;;;;;;;11.90;11.00;;;;;;;14.28;100.00;97479.03;5098698;28;20207;-75
2023/08/30 00:28:50;;;;;;;12.63;11.63;;;;;;;14.27;100.00;97490.81;5098151;28;20231;-75
2023/08/30 00:31:16;;;;;;;11.93;10.87;;;;;;;14.14;100.00;97481.31;5098779;28;20199;-75
2023/08/30 00:33:42;;;;;;;11.57;10.67;;;;;;;14.15;100.00;97482.94;5098403;28;20204;-75
2023/08/30 00:36:09;;;;;;;11.90;10.93;;;;;;;14.15;100.00;97474.91;5098148;28;20285;-75
2023/08/30 00:38:35;;;;;;;12.63;11.53;;;;;;;14.24;100.00;97475.31;5097994;28;20199;-75
2023/08/30 00:41:01;;;;;;;11.93;11.00;;;;;;;14.20;100.00;97472.31;5098009;28;20689;-75
2023/08/30 00:43:28;;;;;;;13.27;11.83;;;;;;;14.15;100.00;97464.22;5098302;28;20662;-75
2023/08/30 00:45:54;;;;;;;12.53;11.27;;;;;;;14.25;100.00;97461.66;5097649;28;20214;-75
2023/08/30 00:48:21;;;;;;;10.80;9.80;;;;;;;14.31;100.00;97460.66;5097739;28;20631;-75
2023/08/30 00:50:48;;;;;;;11.80;10.57;;;;;;;14.31;100.00;97452.63;5098074;28;20206;-75
2023/08/30 00:53:14;;;;;;;11.60;10.60;;;;;;;14.33;100.00;97453.16;5098233;28;20204;-75
2023/08/30 00:55:43;;;;;;;10.97;10.17;;;;;;;14.21;100.00;97455.22;5096701;28;20667;-75
2023/08/30 00:58:11;;;;;;;12.30;11.10;;;;;;;14.15;100.00;97458.09;5097939;28;20674;-75
2023/08/30 01:00:38;;;;;;;11.53;10.37;;;;;;;14.17;100.00;97451.44;5097765;28;20220;-75
2023/08/30 01:03:07;;;;;;;11.50;10.37;;;;;;;14.11;100.00;97454.31;5097749;28;20298;-75
2023/08/30 01:05:33;;;;;;;10.20;9.50;;;;;;;14.09;100.00;97451.88;5097911;28;20257;-75
2023/08/30 01:08:00;;;;;;;10.90;9.90;;;;;;;14.16;100.00;97436.41;5097835;28;20210;-75
2023/08/30 01:10:41;;;;;;;10.43;9.50;;;;;;;14.13;100.00;97444.97;5097369;28;20714;-75
2023/08/30 01:13:10;;;;;;;11.37;9.13;;;;;;;14.15;100.00;97442.06;5098462;28;20223;-75
2023/08/30 01:15:39;;;;;;;10.13;9.10;;;;;;;14.04;100.00;97437.66;5097735;28;20574;-75
2023/08/30 01:18:07;;;;;;;10.93;10.00;;;;;;;14.05;100.00;97434.75;5096520;28;20566;-75
2023/08/30 01:20:38;;;;;;;10.37;9.57;;;;;;;14.06;100.00;97436.34;5097752;28;20227;-75
2023/08/30 01:23:14;;;;;;;11.13;9.93;;;;;;;14.08;100.00;97433.44;5097617;28;20196;-75
2023/08/30 01:26:05;;;;;;;9.43;8.53;;;;;;;13.98;100.00;97426.13;5096263;28;20187;-75
2023/08/30 01:28:34;;;;;;;9.43;8.73;;;;;;;14.11;100.00;97430.25;5095910;28;20238;-75
2023/08/30 01:31:00;;;;;;;9.17;8.47;;;;;;;14.06;100.00;97433.69;5097526;28;20206;-75
2023/08/30 01:33:27;;;;;;;8.70;8.00;;;;;;;13.99;100.00;97435.78;5096765;28;20208;-75
2023/08/30 01:35:59;;;;;;;9.33;8.37;;;;;;;13.94;100.00;97438.41;5096750;28;20724;-75
2023/08/30 01:38:30;;;;;;;8.97;8.23;;;;;;;13.97;100.00;97437.88;5097160;28;20214;-75
2023/08/30 01:40:59;;;;;;;9.03;8.37;;;;;;;13.93;100.00;97436.00;5097522;28;20203;-75
2023/08/30 01:43:28;;;;;;;8.90;8.13;;;;;;;13.90;100.00;97445.31;5097480;28;20218;-75
2023/08/30 01:45:56;;;;;;;9.97;9.13;;;;;;;13.84;100.00;97437.50;5097083;28;20199;-75
2023/08/30 01:48:24;;;;;;;9.40;8.60;;;;;;;13.86;100.00;97446.06;5096582;28;20235;-75
2023/08/30 01:50:51;;;;;;;9.53;8.63;;;;;;;13.82;100.00;97442.28;5096747;28;20685;-75
2023/08/30 01:53:18;;;;;;;9.30;8.60;;;;;;;13.95;100.00;97440.00;5095542;28;20210;-75
2023/08/30 01:55:44;;;;;;;8.97;7.97;;;;;;;13.78;100.00;97443.84;5097080;28;20574;-75
2023/08/30 01:58:10;;;;;;;9.50;8.80;;;;;;;13.79;100.00;97448.16;5096330;28;20547;-75
2023/08/30 02:00:37;;;;;;;9.47;8.50;;;;;;;13.69;100.00;97453.38;5096637;28;20224;-75
2023/08/30 02:03:14;;;;;;;9.57;8.77;;;;;;;13.64;100.00;97453.34;5096708;28;20199;-75
2023/08/30 02:06:12;;;;;;;9.37;8.50;;;;;;;13.70;100.00;97455.81;5096873;28;20646;-75
2023/08/30 02:08:54;;;;;;;9.13;8.33;;;;;;;13.66;100.00;97456.59;5094828;28;20598;-75
2023/08/30 02:11:28;;;;;;;9.77;8.87;;;;;;;13.69;100.00;97462.22;5094673;28;20189;-75
2023/08/30 02:13:58;;;;;;;9.23;8.43;;;;;;;13.64;100.00;97458.69;5096776;28;20216;-75
2023/08/30 02:16:26;;;;;;;9.63;8.83;;;;;;;13.62;100.00;97464.28;5096555;28;20211;-75
2023/08/30 02:18:54;;;;;;;10.73;9.87;;;;;;;13.77;100.00;97459.09;5096064;28;20589;-75
2023/08/30 02:21:20;;;;;;;11.20;10.30;;;;;;;13.72;100.00;97458.22;5096846;28;20208;-75
2023/08/30 02:23:51;;;;;;;10.33;9.57;;;;;;;13.63;100.00;97454.41;5096456;28;20210;-75
2023/08/30 02:26:21;;;;;;;9.73;8.83;;;;;;;13.73;100.00;97452.63;5095956;28;20666;-75
2023/08/30 02:28:48;;;;;;;9.97;8.90;;;;;;;13.62;100.00;97455.47;5095580;28;20712;-75
2023/08/30 02:31:14;;;;;;;9.73;9.03;;;;;;;13.64;100.00;97451.47;5096221;28;20200;-75
2023/08/30 02:33:41;;;;;;;9.80;9.03;;;;;;;13.56;100.00;97457.28;5095869;28;20669;-75
2023/08/30 02:36:07;;;;;;;10.40;9.47;;;;;;;13.59;100.00;97456.78;5096197;28;20208;-75
2023/08/30 02:38:34;;;;;;;10.93;10.13;;;;;;;13.63;100.00;97452.56;5095202;28;20199;-75
2023/08/30 02:41:00;;;;;;;10.77;9.83;;;;;;;13.53;100.00;97460.47;5096010;28;20578;-75
2023/08/30 02:43:27;;;;;;;11.13;10.33;;;;;;;13.51;100.00;97459.91;5095585;28;20571;-75
2023/08/30 02:45:53;;;;;;;10.80;10.00;;;;;;;13.55;100.00;97463.69;5095481;28;20566;-75
2023/08/30 02:48:19;;;;;;;10.33;9.57;;;;;;;13.56;100.00;97457.28;5096030;28;20231;-75
2023/08/30 02:50:46;;;;;;;10.43;9.60;;;;;;;13.59;100.00;97462.13;5095962;28;20216;-75
2023/08/30 02:53:12;;;;;;;10.73;9.73;;;;;;;13.62;100.00;97463.47;5095809;28;20204;-75
2023/08/30 02:55:39;;;;;;;10.37;9.47;;;;;;;13.64;100.00;97456.81;5094632;28;20204;-75
2023/08/30 02:58:05;;;;;;;9.53;8.83;;;;;;;13.60;100.00;97461.06;5095208;28;20214;-75
2023/08/30 03:00:31;;;;;;;10.07;9.10;;;;;;;13.46;100.00;97462.50;5095502;28;20220;-75
2023/08/30 03:02:58;;;;;;;10.67;9.87;;;;;;;13.49;100.00;97461.22;5095131;28;20207;-75
2023/08/30 03:05:24;;;;;;;10.47;9.63;;;;;;;13.56;100.00;97456.50;5095339;28;20208;-75
2023/08/30 03:07:51;;;;;;;10.77;9.97;;;;;;;13.45;100.00;97449.41;5095514;28;20204;-75
2023/08/30 03:10:17;;;;;;;10.13;9.43;;;;;;;13.43;100.00;97456.88;5095687;28;20270;-75
2023/08/30 03:12:44;;;;;;;10.30;9.40;;;;;;;13.39;100.00;97450.44;5095766;28;20214;-75
2023/08/30 03:15:10;;;;;;;10.70;9.90;;;;;;;13.40;100.00;97450.19;5094869;28;20545;-75
2023/08/30 03:17:37;;;;;;;9.90;9.10;;;;;;;13.48;100.00;97447.03;5095518;28;20262;-75
2023/08/30 03:20:04;;;;;;;10.73;9.73;;;;;;;13.45;100.00;97446.75;5095517;28;20273;-75
2023/08/30 03:22:32;;;;;;;9.47;8.73;;;;;;;13.42;100.00;97439.22;5095246;28;20204;-75
2023/08/30 03:25:02;;;;;;;10.37;9.40;;;;;;;13.50;100.00;97431.59;5095333;28;20273;-75
2023/08/30 03:27:28;;;;;;;9.83;8.97;;;;;;;13.46;100.00;97430.47;5095182;28;20302;-75
2023/08/30 03:29:56;;;;;;;9.30;8.60;;;;;;;13.50;100.00;97433.44;5094715;28;20228;-75
2023/08/30 03:32:23;;;;;;;9.90;9.00;;;;;;;13.66;100.00;97436.00;5095166;28;20207;-75
2023/08/30 03:34:50;;;;;;;10.43;9.63;;;;;;;13.65;100.00;97426.38;5094890;28;20286;-75
2023/08/30 03:37:17;;;;;;;9.90;9.03;;;;;;;13.72;100.00;97429.66;5095336;28;20239;-75
2023/08/30 03:39:44;;;;;;;10.23;9.20;;;;;;;13.89;100.00;97429.53;5094956;28;20226;-75
2023/08/30 03:42:10;;;;;;;10.30;9.50;;;;;;;13.80;100.00;97426.50;5095277;28;20206;-75
2023/08/30 03:44:38;;;;;;;9.43;8.40;;;;;;;13.70;100.00;97426.44;5094542;28;20574;-75
2023/08/30 03:47:05;;;;;;;9.80;9.00;;;;;;;13.74;100.00;97427.53;5095426;28;20214;-75
2023/08/30 03:49:31;;;;;;;10.03;9.17;;;;;;;13.84;100.00;97427.63;5094281;28;20230;-75
2023/08/30 03:51:58;;;;;;;9.60;8.83;;;;;;;13.85;100.00;97428.44;5094535;28;20214;-75
2023/08/30 03:54:24;;;;;;;9.37;8.67;;;;;;;13.84;100.00;97435.63;5094849;28;20204;-75
2023/08/30 03:56:50;;;;;;;9.23;8.43;;;;;;;13.82;100.00;97429.75;5094418;28;20203;-75
2023/08/30 03:59:17;;;;;;;9.67;8.87;;;;;;;13.78;100.00;97428.63;5094257;28;20238;-75
2023/08/30 04:01:43;;;;;;;9.27;8.47;;;;;;;13.80;100.00;97437.19;5083225;28;20208;-75
2023/08/30 04:04:10;;;;;;;9.57;8.67;;;;;;;13.79;100.00;97435.59;5073951;28;20217;-76
2023/08/30 04:06:36;;;;;;;10.07;9.20;;;;;;;13.80;100.00;97445.22;5077309;28;20695;-77
2023/08/30 04:09:02;;;;;;;10.40;9.53;;;;;;;13.87;100.00;97431.63;5074181;28;20690;-77
2023/08/30 04:11:29;;;;;;;9.50;8.70;;;;;;;13.81;100.00;97438.00;5073570;28;20205;-77
2023/08/30 04:13:55;;;;;;;9.97;9.07;;;;;;;13.76;100.00;97444.13;5073753;28;20226;-77
2023/08/30 04:16:21;;;;;;;10.33;9.53;;;;;;;13.80;100.00;97434.53;5078352;28;20667;-77
2023/08/30 04:18:48;;;;;;;9.20;8.40;;;;;;;13.74;100.00;97448.13;5092234;28;20329;-77
2023/08/30 04:21:14;;;;;;;8.73;8.13;;;;;;;13.69;100.00;97445.38;5093654;28;20199;-77
2023/08/30 04:23:40;;;;;;;9.50;8.80;;;;;;;13.72;100.00;97439.53;5087086;28;20191;-77
2023/08/30 04:26:07;;;;;;;9.63;8.83;;;;;;;13.67;100.00;97434.97;5104527;28;20203;-77
2023/08/30 04:28:33;;;;;;;10.17;9.20;;;;;;;13.76;100.00;97443.31;5110570;28;20211;-77
2023/08/30 04:31:00;;;;;;;9.93;9.00;;;;;;;13.74;100.00;97440.09;5093013;28;20254;-78
2023/08/30 04:33:26;;;;;;;10.40;9.40;;;;;;;13.83;100.00;97438.59;5093585;28;20218;-77
2023/08/30 04:35:54;;;;;;;9.40;8.60;;;;;;;13.78;100.00;97428.63;5092777;28;20206;-77
2023/08/30 04:38:21;;;;;;;10.77;9.90;;;;;;;13.83;100.00;97447.38;5090918;28;20239;-77
2023/08/30 04:40:48;;;;;;;10.10;9.30;;;;;;;13.83;100.00;97441.25;5081707;28;20669;-77
2023/08/30 04:43:15;;;;;;;10.73;9.80;;;;;;;13.99;100.00;97445.66;5090957;28;20535;-77
2023/08/30 04:45:42;;;;;;;10.77;9.97;;;;;;;13.89;100.00;97446.34;5093541;28;20200;-77
2023/08/30 04:48:08;;;;;;;9.97;9.27;;;;;;;13.86;100.00;97446.88;5088036;28;20672;-77
2023/08/30 04:50:34;;;;;;;10.17;9.37;;;;;;;14.04;100.00;97441.16;5089854;28;20225;-77
2023/08/30 04:53:01;;;;;;;10.13;9.33;;;;;;;13.80;100.00;97441.75;5091311;28;20647;-77
2023/08/30 04:55:30;;;;;;;10.03;9.23;;;;;;;13.79;100.00;97440.94;5072198;28;20227;-77
2023/08/30 04:57:57;;;;;;;11.10;10.00;;;;;;;13.80;100.00;97441.75;5072217;28;20212;-77
2023/08/30 05:00:23;;;;;;;10.87;9.97;;;;;;;13.89;100.00;97440.22;5073016;28;20243;-77
2023/08/30 05:02:49;;;;;;;11.37;9.60;;;;;;;13.86;100.00;97432.72;5075361;28;20207;-77
2023/08/30 05:05:16;;;;;;;11.33;10.33;;;;;;;13.76;100.00;97435.28;5076950;28;20213;-77
2023/08/30 05:07:42;;;;;;;10.63;9.83;;;;;;;13.71;100.00;97428.03;5076296;28;20201;-77
2023/08/30 05:10:09;;;;;;;10.50;9.70;;;;;;;13.75;100.00;97429.13;5076372;28;20231;-77
2023/08/30 05:12:36;;;;;;;10.37;9.67;;;;;;;13.92;100.00;97437.03;5076559;28;20197;-77
2023/08/30 05:15:03;;;;;;;10.00;9.10;;;;;;;13.83;100.00;97434.03;5076209;28;20212;-77
2023/08/30 05:17:30;;;;;;;10.07;9.37;;;;;;;13.90;100.00;97437.31;5076425;28;20205;-77
2023/08/30 05:19:56;;;;;;;10.10;9.20;;;;;;;13.86;100.00;97446.88;5076224;28;20581;-75
2023/08/30 05:22:22;;;;;;;10.33;9.50;;;;;;;13.87;100.00;97432.47;5076615;28;20668;-75
2023/08/30 05:24:49;;;;;;;10.37;9.47;;;;;;;14.04;100.00;97435.00;5076554;28;20205;-75
2023/08/30 05:27:17;;;;;;;10.60;9.80;;;;;;;14.04;100.00;97440.34;5076778;28;20575;-75
2023/08/30 05:29:43;;;;;;;10.80;9.90;;;;;;;13.97;100.00;97437.88;5076738;28;20228;-75
2023/08/30 05:32:10;;;;;;;10.97;10.17;;;;;;;13.96;100.00;97443.47;5076773;28;20200;-75
2023/08/30 05:34:36;;;;;;;10.80;9.87;;;;;;;14.03;100.00;97439.56;5076894;28;20204;-75
2023/08/30 05:37:03;;;;;;;10.47;9.67;;;;;;;13.86;100.00;97436.19;5075948;28;20208;-75
2023/08/30 05:39:29;;;;;;;10.97;9.90;;;;;;;14.05;100.00;97436.59;5075328;28;20220;-75
2023/08/30 05:41:56;;;;;;;10.50;9.53;;;;;;;14.15;100.00;97434.03;5076136;28;20205;-75
2023/08/30 05:44:22;;;;;;;10.90;10.00;;;;;;;14.09;100.00;97432.34;5076465;28;20207;-75
2023/08/30 05:46:48;;;;;;;9.97;9.17;;;;;;;14.03;100.00;97434.22;5076257;28;20204;-75
2023/08/30 05:49:15;;;;;;;10.70;9.80;;;;;;;14.05;100.00;97420.56;5076425;28;20229;-75
2023/08/30 05:51:41;;;;;;;10.60;9.70;;;;;;;14.04;100.00;97433.13;5076763;28;20208;-77
2023/08/30 05:54:08;;;;;;;11.03;10.03;;;;;;;14.13;100.00;97426.25;5075784;28;20281;-77
2023/08/30 05:56:34;;;;;;;10.87;9.87;;;;;;;14.08;100.00;97438.78;5075349;28;20200;-77
2023/08/30 05:59:01;;;;;;;10.57;9.63;;;;;;;14.07;100.00;97437.97;5075582;28;20737;-77
2023/08/30 06:01:27;;;;;;;11.00;10.17;;;;;;;14.02;100.00;97440.59;5076264;28;20197;-77
2023/08/30 06:03:54;;;;;;;11.10;10.13;;;;;;;14.23;100.00;97434.38;5075242;28;20545;-77
2023/08/30 06:06:20;;;;;;;10.23;9.33;;;;;;;14.23;100.00;97429.03;5075713;28;20236;-77
2023/08/30 06:08:47;;;;;;;10.77;9.57;;;;;;;14.28;100.00;97433.59;5075689;28;20770;-77
2023/08/30 06:11:13;;;;;;;11.13;9.83;;;;;;;14.30;100.00;97436.84;5075845;28;20278;-76
2023/08/30 06:13:40;;;;;;;11.57;10.57;;;;;;;14.31;100.00;97431.22;5074909;28;20205;-77
2023/08/30 06:16:07;;;;;;;10.53;9.63;;;;;;;14.31;100.00;97439.25;5075348;28;20209;-76
2023/08/30 06:18:33;;;;;;;10.37;9.57;;;;;;;14.43;100.00;97444.41;5074949;28;20215;-77
2023/08/30 06:21:00;;;;;;;10.93;9.87;;;;;;;14.51;100.00;97447.41;5076378;28;20517;-75
2023/08/30 06:23:26;;;;;;;9.37;8.67;;;;;;;14.52;100.00;97445.53;5076018;28;20208;-75
2023/08/30 06:25:57;;;;;;;10.20;9.20;;;;;;;14.61;100.00;97447.44;5075485;28;20204;-75
2023/08/30 06:28:24;;;;;;;8.77;8.07;;;;;;;14.56;100.00;97446.63;5076002;28;20208;-75
2023/08/30 06:30:51;;;;;;;10.20;9.30;;;;;;;14.51;100.00;97439.38;5076062;28;20215;-75
2023/08/30 06:33:17;;;;;;;10.10;9.27;;;;;;;14.78;100.00;97447.28;5075500;28;20231;-75
2023/08/30 06:35:44;;;;;;;8.90;8.13;;;;;;;14.77;100.00;97443.00;5075727;28;20205;-75
2023/08/30 06:38:10;;;;;;;10.03;9.03;;;;;;;14.74;100.00;97441.66;5075473;28;20293;-75
2023/08/30 06:40:37;;;;;;;9.43;8.73;;;;;;;14.76;100.00;97447.56;5075421;28;20220;-75
2023/08/30 06:43:03;;;;;;;9.73;8.83;;;;;;;14.74;100.00;97452.34;5075352;28;20205;-75
2023/08/30 06:45:30;;;;;;;8.90;8.30;;;;;;;14.72;100.00;97446.47;5075618;28;20211;-77
2023/08/30 06:47:56;;;;;;;9.03;8.13;;;;;;;14.81;100.00;97438.72;5075032;28;20254;-76
2023/08/30 06:50:23;;;;;;;9.33;8.60;;;;;;;14.88;100.00;97448.13;5074320;28;20583;-75
2023/08/30 06:52:49;;;;;;;9.10;8.37;;;;;;;14.90;100.00;97440.66;5074878;28;20578;-75
2023/08/30 06:55:15;;;;;;;8.90;7.53;;;;;;;14.88;100.00;97450.81;5074857;28;20218;-75
2023/08/30 06:57:42;;;;;;;7.50;6.80;;;;;;;15.09;100.00;97446.34;5074725;28;20208;-75
2023/08/30 07:00:09;;;;;;;8.00;7.30;;;;;;;15.01;100.00;97447.66;5074658;28;20304;-75
2023/08/30 07:02:38;;;;;;;7.77;7.00;;;;;;;15.03;100.00;97442.88;5075122;28;20212;-75
2023/08/30 07:05:06;;;;;;;8.30;7.67;;;;;;;15.05;100.00;97443.41;5074529;28;20206;-75
2023/08/30 07:07:32;;;;;;;8.73;8.03;;;;;;;15.07;100.00;97441.25;5074445;28;20200;-75
2023/08/30 07:09:59;;;;;;;8.50;7.70;;;;;;;15.07;100.00;97435.91;5074464;28;20263;-75
2023/08/30 07:12:26;;;;;;;11.67;8.03;;;;;;;14.88;100.00;97440.09;5074509;28;20208;-75
2023/08/30 07:14:53;;;;;;;11.20;7.83;;;;;;;14.85;100.00;97429.13;5074510;28;20204;-75
2023/08/30 07:17:19;;;;;;;9.73;8.07;;;;;;;14.78;100.00;97433.88;5074561;28;20580;-75
2023/08/30 07:19:46;;;;;;;9.70;8.70;;;;;;;14.87;100.00;97448.38;5074356;28;20270;-75
2023/08/30 07:22:12;;;;;;;8.30;7.60;;;;;;;14.86;100.00;97444.94;5074578;28;20208;-75
2023/08/30 07:24:38;;;;;;;9.63;8.83;;;;;;;14.79;100.00;97439.00;5073874;28;20660;-75
2023/08/30 07:27:05;;;;;;;8.53;7.83;;;;;;;14.78;100.00;97432.03;5073448;28;20671;-75
2023/08/30 07:29:32;;;;;;;8.33;7.67;;;;;;;14.77;100.00;97435.78;5073934;28;20232;-75
2023/08/30 07:31:58;;;;;;;7.77;7.23;;;;;;;14.95;100.00;97435.34;5074372;28;20204;-75
2023/08/30 07:34:25;;;;;;;8.20;7.60;;;;;;;14.93;100.00;97442.81;5074465;28;20208;-75
2023/08/30 07:36:51;;;;;;;8.77;8.07;;;;;;;14.94;100.00;97443.63;5073912;28;20664;-75
2023/08/30 07:39:17;;;;;;;8.90;8.00;;;;;;;14.90;100.00;97443.34;5074177;28;20231;-75
2023/08/30 07:41:44;;;;;;;8.20;7.60;;;;;;;14.95;100.00;97435.34;5073833;28;20207;-75
2023/08/30 07:44:10;;;;;;;8.93;8.10;;;;;;;15.00;100.00;97448.72;5074184;28;20205;-75
2023/08/30 07:46:37;;;;;;;9.07;8.37;;;;;;;15.05;100.00;97447.94;5074248;28;20208;-75
2023/08/30 07:49:03;;;;;;;9.03;8.23;;;;;;;15.08;100.00;97442.88;5074198;28;20225;-75
2023/08/30 07:51:29;;;;;;;9.00;8.20;;;;;;;14.94;100.00;97449.78;5074074;28;20238;-75
2023/08/30 07:53:56;;;;;;;8.53;7.83;;;;;;;14.91;100.00;97446.81;5074132;28;20209;-75
2023/08/30 07:56:22;;;;;;;8.40;7.60;;;;;;;15.06;100.00;97447.69;5074236;28;20292;-75
2023/08/30 07:58:49;;;;;;;7.50;6.80;;;;;;;14.99;100.00;97440.97;5074022;28;20224;-75
2023/08/30 08:01:15;;;;;;;7.63;6.93;;;;;;;14.99;100.00;97441.78;5074001;28;20204;-75
2023/08/30 08:03:41;;;;;;;7.13;6.53;;;;;;;15.06;100.00;97444.22;5073864;28;20215;-75
2023/08/30 08:06:08;;;;;;;7.57;6.87;;;;;;;15.15;100.00;97440.75;5073988;28;20274;-75
2023/08/30 08:08:34;;;;;;;7.90;7.20;;;;;;;15.17;100.00;97441.31;5073638;28;20288;-75
2023/08/30 08:11:01;;;;;;;7.13;6.63;;;;;;;15.21;100.00;97437.03;5073577;28;20691;-75
2023/08/30 08:13:27;;;;;;;6.77;6.07;;;;;;;15.11;100.00;97436.19;5073400;28;20694;-75
2023/08/30 08:15:57;;;;;;;6.60;6.07;;;;;;;15.23;100.00;97429.53;5073834;28;20215;-74
2023/08/30 08:18:24;;;;;;;7.20;6.50;;;;;;;15.37;100.00;97438.72;5073371;28;20201;-75
2023/08/30 08:20:51;;;;;;;7.30;6.67;;;;;;;15.41;100.00;97439.81;5074114;28;20212;-75
2023/08/30 08:23:17;;;;;;;6.30;5.70;;;;;;;15.65;100.00;97440.91;5073455;28;20644;-74
2023/08/30 08:25:44;;;;;;;6.07;5.67;;;;;;;15.56;100.00;97441.72;5073057;28;20201;-73
2023/08/30 08:28:10;;;;;;;5.40;5.03;;;;;;;15.58;100.00;97443.06;5072786;28;20710;-72
2023/08/30 08:30:37;;;;;;;6.03;5.00;;;;;;;15.53;100.00;97458.31;5072638;28;20691;-72
2023/08/30 08:33:04;;;;;;;5.23;4.80;;;;;;;15.50;100.00;97442.75;5073269;28;20542;-72
2023/08/30 08:35:30;;;;;;;5.03;4.73;;;;;;;15.36;100.00;97442.47;5074216;28;20220;-72
2023/08/30 08:37:56;;;;;;;4.87;4.47;;;;;;;15.64;100.00;97443.84;5076105;28;20215;-72
2023/08/30 08:40:23;;;;;;;5.00;4.60;;;;;;;15.67;100.00;97448.69;5076920;28;20224;-72
2023/08/30 08:42:51;;;;;;;5.40;4.90;;;;;;;16.00;100.00;97449.00;5076875;28;20205;-72
2023/08/30 08:45:19;;;;;;;5.23;4.73;;;;;;;16.06;100.00;97447.13;5076741;28;20209;-72
2023/08/30 08:47:47;;;;;;;4.73;4.33;;;;;;;16.28;100.00;97440.41;5077778;28;20295;-72
2023/08/30 08:50:13;;;;;;;4.57;4.17;;;;;;;16.39;100.00;97442.03;5076658;28;20224;-72
2023/08/30 08:52:41;;;;;;;4.83;4.10;;;;;;;16.25;100.00;97440.97;5076618;28;20217;-71
2023/08/30 08:55:07;;;;;;;5.37;4.83;;;;;;;16.51;100.00;97437.19;5076868;28;20287;-72
2023/08/30 08:57:33;;;;;;;3.40;3.20;;;;;;;16.63;100.00;97442.25;5076250;28;20200;-72
2023/08/30 09:00:00;;;;;;;3.37;3.07;;;;;;;16.66;100.00;97441.72;5076203;28;20229;-72
2023/08/30 09:02:27;;;;;;;5.87;3.10;;;;;;;16.50;100.00;97443.63;5076506;28;20571;-72
2023/08/30 09:04:54;;;;;;;4.17;3.43;;;;;;;16.63;100.00;97443.06;5076807;28;20201;-72
2023/08/30 09:07:21;;;;;;;3.40;3.20;;;;;;;16.55;100.00;97445.53;5076822;28;20200;-72
2023/08/30 09:09:48;;;;;;;4.13;3.83;;;;;;;16.41;100.00;97442.56;5076767;28;20231;-72
2023/08/30 09:12:15;;;;;;;3.53;3.23;;;;;;;16.79;100.00;97441.94;5076241;28;20259;-74
2023/08/30 09:14:41;;;;;;;3.97;3.30;;;;;;;16.98;100.00;97448.34;5076213;28;20209;-72
2023/08/30 09:17:08;;;;;;;3.73;3.50;;;;;;;16.91;100.00;97452.38;5075883;28;20663;-72
2023/08/30 09:19:34;;;;;;;3.40;3.20;;;;;;;17.19;100.00;97452.56;5076103;28;20235;-72
2023/08/30 09:22:00;;;;;;;3.43;3.13;;;;;;;17.19;100.00;97454.44;5076101;28;20667;-72
2023/08/30 09:24:38;;;;;;;2.93;2.63;;;;;;;17.18;100.00;97455.50;5076249;28;20227;-72
2023/08/30 09:27:05;;;;;;;3.07;2.87;;;;;;;17.32;100.00;97454.66;5076254;28;20188;-72
2023/08/30 09:29:32;;;;;;;3.03;2.73;;;;;;;17.32;100.00;97460.03;5075638;28;20832;-71
2023/08/30 09:31:59;;;;;;;3.07;2.87;;;;;;;17.44;100.00;97449.78;5075815;28;20696;-71
2023/08/30 09:34:26;;;;;;;4.43;2.70;;;;;;;17.42;100.00;97446.56;5076461;28;20340;-71
2023/08/30 09:36:53;;;;;;;2.80;2.60;;;;;;;17.67;100.00;97449.13;5075296;28;20208;-72
2023/08/30 09:39:20;;;;;;;2.60;2.40;;;;;;;17.25;100.00;97440.72;5075262;28;20782;-72
2023/08/30 09:41:48;;;;;;;2.20;2.10;;;;;;;17.13;100.00;97444.78;5076221;28;20205;-72
2023/08/30 09:44:20;;;;;;;3.43;2.47;;;;;;;17.30;100.00;97442.56;5075611;28;20201;-72
2023/08/30 09:46:47;;;;;;;3.87;2.60;;;;;;;17.16;100.00;97438.88;5075649;28;20238;-72
2023/08/30 09:49:14;;;;;;;3.50;2.90;;;;;;;17.31;100.00;97441.47;5074291;28;20703;-72
2023/08/30 09:51:43;;;;;;;3.60;2.80;;;;;;;17.31;100.00;97442.28;5075773;28;20268;-72
2023/08/30 09:54:38;;;;;;;2.93;2.50;;;;;;;17.48;100.00;97439.28;5075724;28;20209;-72
2023/08/30 09:57:06;;;;;;;2.33;2.20;;;;;;;17.88;100.00;97442.53;5074415;28;20243;-72
2023/08/30 09:59:33;;;;;;;2.03;1.93;;;;;;;17.89;100.00;97430.69;5076020;28;20264;-72
2023/08/30 10:02:01;;;;;;;2.53;2.00;;;;;;;18.05;100.00;97432.16;5076028;28;20544;-72
2023/08/30 10:04:27;;;;;;;2.00;1.80;;;;;;;18.10;100.00;97432.13;5076414;28;20258;-72
2023/08/30 10:06:57;;;;;;;2.93;1.90;;;;;;;18.19;100.00;97430.44;5075440;28;20208;-72
2023/08/30 10:09:24;;;;;;;2.90;1.80;;;;;;;18.24;100.00;97433.06;5075196;28;20231;-72
2023/08/30 10:11:52;;;;;;;2.13;1.93;;;;;;;18.44;100.00;97424.88;5075977;28;20224;-73
2023/08/30 10:14:18;;;;;;;2.13;1.93;;;;;;;18.45;100.00;97422.97;5075525;28;20208;-72
2023/08/30 10:16:47;;;;;;;2.50;2.30;;;;;;;18.60;100.00;97415.53;5074541;28;20295;-72
2023/08/30 10:19:17;;;;;;;2.27;2.07;;;;;;;18.93;100.00;97416.53;5074527;28;20231;-72
2023/08/30 10:21:45;;;;;;;1.90;1.80;;;;;;;19.09;100.00;97401.81;5074769;28;20201;-73
2023/08/30 10:24:16;;;;;;;1.80;1.70;;;;;;;19.16;100.00;97405.75;5074723;28;20236;-72
2023/08/30 10:26:45;;;;;;;3.13;1.80;;;;;;;18.96;100.00;97397.09;5074583;28;20188;-73
2023/08/30 10:29:14;;;;;;;1.80;1.63;;;;;;;18.92;100.00;97391.47;5074119;28;20286;-73
2023/08/30 10:31:41;;;;;;;3.13;1.70;;;;;;;19.04;100.00;97389.19;5074778;28;20233;-73
2023/08/30 10:34:16;;;;;;;2.50;1.90;;;;;;;18.96;100.00;97387.13;5074670;28;20705;-73
2023/08/30 10:36:44;;;;;;;2.20;1.80;;;;;;;19.18;100.00;97384.69;5074139;28;20240;-72
2023/08/30 10:39:15;;;;;;;1.70;1.60;;;;;;;18.92;100.00;97378.00;5074214;28;20719;-73
2023/08/30 10:41:58;;;;;;;1.43;1.33;;;;;;;18.65;100.00;97388.59;5074354;28;20561;-76
2023/08/30 10:44:24;;;;;;;1.50;1.40;;;;;;;18.29;100.00;97384.63;5074540;28;20207;-73
2023/08/30 10:46:55;;;;;;;2.20;1.50;;;;;;;18.31;100.00;97379.75;5074246;28;20205;-73
2023/08/30 10:49:23;;;;;;;1.60;1.50;;;;;;;18.29;100.00;97386.50;5074322;28;20232;-72
2023/08/30 10:52:00;;;;;;;3.47;1.73;;;;;;;18.23;100.00;97385.72;5075820;28;20220;-72
2023/08/30 10:54:37;;;;;;;1.70;1.60;;;;;;;18.24;100.00;97381.94;5074267;28;20188;-72
2023/08/30 10:57:04;;;;;;;1.70;1.60;;;;;;;18.32;100.00;97383.25;5074353;28;20211;-72
2023/08/30 10:59:30;;;;;;;1.60;1.50;;;;;;;18.27;100.00;97377.91;5073689;28;20251;-72
2023/08/30 11:02:03;;;;;;;2.40;1.60;;;;;;;18.41;100.00;97376.19;5074165;28;20196;-72
2023/08/30 11:04:29;;;;;;;1.60;1.50;;;;;;;18.66;100.00;97371.34;5073719;28;20203;-72
2023/08/30 11:06:57;;;;;;;1.60;1.50;;;;;;;18.80;97.83;97372.25;5073867;28;20209;-72
2023/08/30 11:09:25;;;;;;;1.40;1.30;;;;;;;18.95;97.53;97379.34;5074014;28;20229;-72
2023/08/30 11:11:52;;;;;;;1.47;1.37;;;;;;;19.31;97.74;97375.09;5073521;28;20658;-72
2023/08/30 11:14:19;;;;;;;2.17;1.97;;;;;;;19.23;98.46;97373.06;5073754;28;20208;-72
2023/08/30 11:16:46;;;;;;;2.40;1.57;;;;;;;19.12;100.00;97369.69;5073781;28;20210;-72
2023/08/30 11:19:12;;;;;;;1.63;1.53;;;;;;;19.08;100.00;97374.03;5073785;28;20228;-72
2023/08/30 11:21:43;;;;;;;1.60;1.50;;;;;;;18.99;97.60;97370.38;5073379;28;20562;-72
2023/08/30 11:24:11;;;;;;;1.77;1.63;;;;;;;19.02;100.00;97363.63;5073736;28;20652;-73